sensor_id;sensor_type;location;lat;lon;timestamp;pressure;altitude;pressure_sealevel;temperature;humidity
36284;BME280;56085;48.910;9.478;2023-01-27T00:00:02;98428.59;;;-2.08;93.40
36284;BME280;56085;48.910;9.478;2023-01-27T00:02:27;98422.09;;;-2.07;93.63
36284;BME280;56085;48.910;9.478;2023-01-27T00:04:53;98421.00;;;-2.06;93.59
36284;BME280;56085;48.910;9.478;2023-01-27T00:07:18;98421.81;;;-2.05;93.81
36284;BME280;56085;48.910;9.478;2023-01-27T00:09:43;98424.53;;;-2.05;93.78
36284;BME280;56085;48.910;9.478;2023-01-27T00:12:13;98419.66;;;-2.08;93.24
36284;BME280;56085;48.910;9.478;2023-01-27T00:15:00;98415.84;;;-2.07;93.63
36284;BME280;56085;48.910;9.478;2023-01-27T00:17:25;98424.78;;;-2.02;93.64
36284;BME280;56085;48.910;9.478;2023-01-27T00:19:50;98418.28;;;-2.01;93.04
36284;BME280;56085;48.910;9.478;2023-01-27T00:22:15;98429.69;;;-2.04;93.15
36284;BME280;56085;48.910;9.478;2023-01-27T00:24:59;98425.34;;;-2.05;93.38
36284;BME280;56085;48.910;9.478;2023-01-27T00:27:25;98412.06;;;-2.01;93.58
36284;BME280;56085;48.910;9.478;2023-01-27T00:29:51;98416.94;;;-2.03;93.80
36284;BME280;56085;48.910;9.478;2023-01-27T00:32:17;98423.97;;;-2.02;93.77
36284;BME280;56085;48.910;9.478;2023-01-27T00:35:01;98416.94;;;-2.03;93.70
36284;BME280;56085;48.910;9.478;2023-01-27T00:37:27;98412.59;;;-1.99;93.60
36284;BME280;56085;48.910;9.478;2023-01-27T00:39:52;98419.09;;;-1.95;93.28
36284;BME280;56085;48.910;9.478;2023-01-27T00:42:17;98414.47;;;-1.95;93.66
36284;BME280;56085;48.910;9.478;2023-01-27T00:44:42;98423.69;;;-1.96;93.02
36284;BME280;56085;48.910;9.478;2023-01-27T00:47:27;98419.59;;;-1.93;93.15
36284;BME280;56085;48.910;9.478;2023-01-27T00:49:53;98417.44;;;-1.96;93.52
36284;BME280;56085;48.910;9.478;2023-01-27T00:52:18;98421.78;;;-1.95;93.23
36284;BME280;56085;48.910;9.478;2023-01-27T00:54:43;98418.28;;;-1.96;93.01
36284;BME280;56085;48.910;9.478;2023-01-27T00:57:08;98419.88;;;-1.95;93.49
36284;BME280;56085;48.910;9.478;2023-01-27T00:59:33;98416.91;;;-1.93;92.87
36284;BME280;56085;48.910;9.478;2023-01-27T01:01:58;98423.94;;;-1.92;93.30
36284;BME280;56085;48.910;9.478;2023-01-27T01:04:24;98428.81;;;-1.89;93.79
36284;BME280;56085;48.910;9.478;2023-01-27T01:06:49;98427.47;;;-1.91;93.25
36284;BME280;56085;48.910;9.478;2023-01-27T01:09:14;98429.59;;;-1.88;93.22
36284;BME280;56085;48.910;9.478;2023-01-27T01:11:39;98430.16;;;-1.91;93.05
36284;BME280;56085;48.910;9.478;2023-01-27T01:14:04;98434.22;;;-1.89;93.21
36284;BME280;56085;48.910;9.478;2023-01-27T01:16:29;98429.09;;;-1.90;93.41
36284;BME280;56085;48.910;9.478;2023-01-27T01:18:55;98432.31;;;-1.88;93.43
36284;BME280;56085;48.910;9.478;2023-01-27T01:21:21;98442.91;;;-1.92;93.05
36284;BME280;56085;48.910;9.478;2023-01-27T01:23:46;98436.69;;;-1.92;93.32
36284;BME280;56085;48.910;9.478;2023-01-27T01:26:13;98442.38;;;-1.89;93.50
36284;BME280;56085;48.910;9.478;2023-01-27T01:28:39;98440.72;;;-1.90;93.36
36284;BME280;56085;48.910;9.478;2023-01-27T01:31:09;98435.88;;;-1.93;93.41
36284;BME280;56085;48.910;9.478;2023-01-27T01:33:35;98438.03;;;-1.90;93.48
36284;BME280;56085;48.910;9.478;2023-01-27T01:36:04;98426.38;;;-1.90;93.64
36284;BME280;56085;48.910;9.478;2023-01-27T01:38:29;98426.13;;;-1.94;93.05
36284;BME280;56085;48.910;9.478;2023-01-27T01:40:54;98425.03;;;-1.93;93.05
36284;BME280;56085;48.910;9.478;2023-01-27T01:43:19;98421.47;;;-1.88;93.61
36284;BME280;56085;48.910;9.478;2023-01-27T01:45:53;98423.66;;;-1.85;93.81
36284;BME280;56085;48.910;9.478;2023-01-27T01:50:51;98416.84;;;-1.83;92.96
36284;BME280;56085;48.910;9.478;2023-01-27T01:53:18;98418.50;;;-1.82;93.63
36284;BME280;56085;48.910;9.478;2023-01-27T01:55:44;98414.16;;;-1.83;93.75
36284;BME280;56085;48.910;9.478;2023-01-27T01:58:10;98428.25;;;-1.81;93.26
36284;BME280;56085;48.910;9.478;2023-01-27T02:00:36;98414.66;;;-1.76;93.74
36284;BME280;56085;48.910;9.478;2023-01-27T02:03:01;98413.31;;;-1.73;93.75
36284;BME280;56085;48.910;9.478;2023-01-27T02:05:28;98408.41;;;-1.71;93.12
36284;BME280;56085;48.910;9.478;2023-01-27T02:08:04;98408.16;;;-1.69;93.81
36284;BME280;56085;48.910;9.478;2023-01-27T02:10:31;98408.44;;;-1.81;93.31
36284;BME280;56085;48.910;9.478;2023-01-27T02:12:57;98405.22;;;-1.88;93.87
36284;BME280;56085;48.910;9.478;2023-01-27T02:15:22;98402.50;;;-1.83;93.74
36284;BME280;56085;48.910;9.478;2023-01-27T02:17:48;98396.84;;;-1.87;93.27
36284;BME280;56085;48.910;9.478;2023-01-27T02:25:26;98398.16;;;-1.84;93.36
36284;BME280;56085;48.910;9.478;2023-01-27T02:27:53;98402.50;;;-1.83;93.02
36284;BME280;56085;48.910;9.478;2023-01-27T02:30:18;98401.16;;;-1.86;93.54
36284;BME280;56085;48.910;9.478;2023-01-27T02:32:44;98395.22;;;-1.88;93.29
36284;BME280;56085;48.910;9.478;2023-01-27T02:35:10;98396.00;;;-1.87;92.95
36284;BME280;56085;48.910;9.478;2023-01-27T02:37:37;98389.56;;;-1.97;93.03
36284;BME280;56085;48.910;9.478;2023-01-27T02:40:02;98389.50;;;-1.91;93.40
36284;BME280;56085;48.910;9.478;2023-01-27T02:42:28;98396.59;;;-1.96;93.37
36284;BME280;56085;48.910;9.478;2023-01-27T02:44:53;98404.44;;;-1.94;92.74
36284;BME280;56085;48.910;9.478;2023-01-27T02:47:19;98398.47;;;-1.91;93.08
36284;BME280;56085;48.910;9.478;2023-01-27T02:49:44;98399.00;;;-1.89;93.05
36284;BME280;56085;48.910;9.478;2023-01-27T02:52:09;98396.03;;;-1.92;93.60
36284;BME280;56085;48.910;9.478;2023-01-27T02:54:34;98393.06;;;-1.91;93.02
36284;BME280;56085;48.910;9.478;2023-01-27T02:57:00;98390.34;;;-1.91;93.05
36284;BME280;56085;48.910;9.478;2023-01-27T02:59:25;98391.94;;;-1.85;93.68
36284;BME280;56085;48.910;9.478;2023-01-27T03:01:50;98392.19;;;-1.81;93.66
36284;BME280;56085;48.910;9.478;2023-01-27T03:04:15;98393.81;;;-1.80;93.38
36284;BME280;56085;48.910;9.478;2023-01-27T03:06:40;98402.22;;;-1.77;93.27
36284;BME280;56085;48.910;9.478;2023-01-27T03:09:06;98402.22;;;-1.77;93.47
36284;BME280;56085;48.910;9.478;2023-01-27T03:11:31;98406.25;;;-1.74;93.10
36284;BME280;56085;48.910;9.478;2023-01-27T03:14:15;98399.25;;;-1.80;92.74
36284;BME280;56085;48.910;9.478;2023-01-27T03:16:40;98404.94;;;-1.77;92.79
36284;BME280;56085;48.910;9.478;2023-01-27T03:19:23;98403.03;;;-1.76;93.31
36284;BME280;56085;48.910;9.478;2023-01-27T03:21:51;98405.97;;;-1.72;92.58
36284;BME280;56085;48.910;9.478;2023-01-27T03:24:16;98408.44;;;-1.76;93.04
36284;BME280;56085;48.910;9.478;2023-01-27T03:26:42;98398.41;;;-1.76;93.06
36284;BME280;56085;48.910;9.478;2023-01-27T03:29:07;98405.16;;;-1.73;92.83
36284;BME280;56085;48.910;9.478;2023-01-27T03:31:51;98404.66;;;-1.75;92.81
36284;BME280;56085;48.910;9.478;2023-01-27T03:34:16;98408.69;;;-1.72;92.86
36284;BME280;56085;48.910;9.478;2023-01-27T03:36:41;98406.81;;;-1.72;93.22
36284;BME280;56085;48.910;9.478;2023-01-27T03:39:28;98408.69;;;-1.72;92.25
36284;BME280;56085;48.910;9.478;2023-01-27T03:42:12;98405.44;;;-1.74;92.68
36284;BME280;56085;48.910;9.478;2023-01-27T03:44:55;98403.81;;;-1.76;92.85
36284;BME280;56085;48.910;9.478;2023-01-27T03:47:40;98397.31;;;-1.74;92.22
36284;BME280;56085;48.910;9.478;2023-01-27T03:50:05;98395.16;;;-1.83;92.76
36284;BME280;56085;48.910;9.478;2023-01-27T03:52:35;98406.28;;;-1.79;92.49
36284;BME280;56085;48.910;9.478;2023-01-27T03:55:00;98403.31;;;-1.78;92.25
36284;BME280;56085;48.910;9.478;2023-01-27T03:57:25;98407.09;;;-1.79;92.56
36284;BME280;56085;48.910;9.478;2023-01-27T03:59:50;98406.28;;;-1.79;92.09
36284;BME280;56085;48.910;9.478;2023-01-27T04:02:16;98411.44;;;-1.78;92.38
36284;BME280;56085;48.910;9.478;2023-01-27T04:04:59;98411.94;;;-1.76;92.65
36284;BME280;56085;48.910;9.478;2023-01-27T04:07:43;98408.44;;;-1.76;92.29
36284;BME280;56085;48.910;9.478;2023-01-27T04:10:09;98417.94;;;-1.79;92.14
36284;BME280;56085;48.910;9.478;2023-01-27T04:12:34;98411.94;;;-1.76;92.57
36284;BME280;56085;48.910;9.478;2023-01-27T04:14:59;98417.38;;;-1.76;92.32
36284;BME280;56085;48.910;9.478;2023-01-27T04:17:24;98415.47;;;-1.70;92.68
36284;BME280;56085;48.910;9.478;2023-01-27T04:19:49;98412.75;;;-1.70;92.29
36284;BME280;56085;48.910;9.478;2023-01-27T04:22:15;98416.28;;;-1.69;92.28
36284;BME280;56085;48.910;9.478;2023-01-27T04:24:40;98411.94;;;-1.70;91.88
36284;BME280;56085;48.910;9.478;2023-01-27T04:27:07;98412.50;;;-1.73;91.85
36284;BME280;56085;48.910;9.478;2023-01-27T04:29:33;98422.50;;;-1.69;91.60
36284;BME280;56085;48.910;9.478;2023-01-27T04:31:59;98422.78;;;-1.70;91.62
36284;BME280;56085;48.910;9.478;2023-01-27T04:34:25;98400.56;;;-1.72;91.44
36284;BME280;56085;48.910;9.478;2023-01-27T04:36:50;98422.25;;;-1.72;92.07
36284;BME280;56085;48.910;9.478;2023-01-27T04:39:16;98420.88;;;-1.70;91.98
36284;BME280;56085;48.910;9.478;2023-01-27T04:41:42;98408.72;;;-1.78;92.06
36284;BME280;56085;48.910;9.478;2023-01-27T04:44:07;98414.66;;;-1.76;92.01
36284;BME280;56085;48.910;9.478;2023-01-27T04:46:34;98426.31;;;-1.70;91.48
36284;BME280;56085;48.910;9.478;2023-01-27T04:48:59;98419.53;;;-1.72;91.18
36284;BME280;56085;48.910;9.478;2023-01-27T04:51:24;98426.34;;;-1.80;91.67
36284;BME280;56085;48.910;9.478;2023-01-27T04:53:50;98426.34;;;-1.80;91.73
36284;BME280;56085;48.910;9.478;2023-01-27T04:58:49;98417.38;;;-1.76;91.60
36284;BME280;56085;48.910;9.478;2023-01-27T05:01:15;98420.91;;;-1.75;91.64
36284;BME280;56085;48.910;9.478;2023-01-27T05:03:40;98425.50;;;-1.70;91.26
36284;BME280;56085;48.910;9.478;2023-01-27T05:06:05;98426.84;;;-1.68;91.46
36284;BME280;56085;48.910;9.478;2023-01-27T05:08:30;98424.16;;;-1.73;91.84
36284;BME280;56085;48.910;9.478;2023-01-27T05:10:56;98423.59;;;-1.70;90.93
36284;BME280;56085;48.910;9.478;2023-01-27T05:13:21;98434.16;;;-1.68;91.44
36284;BME280;56085;48.910;9.478;2023-01-27T05:15:46;98430.91;;;-1.70;91.63
36284;BME280;56085;48.910;9.478;2023-01-27T05:18:12;98430.88;;;-1.65;91.50
36284;BME280;56085;48.910;9.478;2023-01-27T05:20:37;98437.69;;;-1.68;91.33
36284;BME280;56085;48.910;9.478;2023-01-27T05:23:02;98437.97;;;-1.69;91.60
36284;BME280;56085;48.910;9.478;2023-01-27T05:25:46;98434.97;;;-1.68;91.22
36284;BME280;56085;48.910;9.478;2023-01-27T05:28:11;98433.59;;;-1.65;91.43
36284;BME280;56085;48.910;9.478;2023-01-27T05:30:36;98432.00;;;-1.66;91.40
36284;BME280;56085;48.910;9.478;2023-01-27T05:33:02;98429.81;;;-1.64;90.68
36284;BME280;56085;48.910;9.478;2023-01-27T05:35:28;98446.34;;;-1.61;91.26
36284;BME280;56085;48.910;9.478;2023-01-27T05:37:56;98432.78;;;-1.61;90.74
36284;BME280;56085;48.910;9.478;2023-01-27T05:40:21;98432.53;;;-1.64;90.60
36284;BME280;56085;48.910;9.478;2023-01-27T05:42:46;98428.44;;;-1.62;91.18
36284;BME280;56085;48.910;9.478;2023-01-27T05:45:12;98443.09;;;-1.63;90.76
36284;BME280;56085;48.910;9.478;2023-01-27T05:47:37;98440.09;;;-1.61;91.17
36284;BME280;56085;48.910;9.478;2023-01-27T05:50:02;98437.38;;;-1.61;91.25
36284;BME280;56085;48.910;9.478;2023-01-27T05:52:27;98432.78;;;-1.61;90.85
36284;BME280;56085;48.910;9.478;2023-01-27T05:54:52;98442.25;;;-1.58;90.42
36284;BME280;56085;48.910;9.478;2023-01-27T05:57:17;98447.38;;;-1.56;90.96
36284;BME280;56085;48.910;9.478;2023-01-27T05:59:43;98452.00;;;-1.57;90.28
36284;BME280;56085;48.910;9.478;2023-01-27T06:02:08;98445.75;;;-1.52;90.47
36284;BME280;56085;48.910;9.478;2023-01-27T06:04:33;98444.69;;;-1.56;90.37
36284;BME280;56085;48.910;9.478;2023-01-27T06:06:58;98441.69;;;-1.55;90.81
36284;BME280;56085;48.910;9.478;2023-01-27T06:09:24;98448.22;;;-1.61;90.05
36284;BME280;56085;48.910;9.478;2023-01-27T06:11:49;98438.50;;;-1.67;90.29
36284;BME280;56085;48.910;9.478;2023-01-27T06:14:15;98449.88;;;-1.65;90.33
36284;BME280;56085;48.910;9.478;2023-01-27T06:16:40;98451.50;;;-1.64;90.61
36284;BME280;56085;48.910;9.478;2023-01-27T06:19:05;98450.97;;;-1.66;89.66
36284;BME280;56085;48.910;9.478;2023-01-27T06:21:30;98449.59;;;-1.64;89.78
36284;BME280;56085;48.910;9.478;2023-01-27T06:23:55;98452.56;;;-1.60;89.68
36284;BME280;56085;48.910;9.478;2023-01-27T06:26:22;98461.25;;;-1.63;90.18
36284;BME280;56085;48.910;9.478;2023-01-27T06:28:47;98460.72;;;-1.65;89.69
36284;BME280;56085;48.910;9.478;2023-01-27T06:31:13;98458.81;;;-1.65;89.45
36284;BME280;56085;48.910;9.478;2023-01-27T06:33:39;98463.97;;;-1.63;89.34
36284;BME280;56085;48.910;9.478;2023-01-27T06:36:05;98460.44;;;-1.59;89.40
36284;BME280;56085;48.910;9.478;2023-01-27T06:38:31;98457.44;;;-1.62;89.22
36284;BME280;56085;48.910;9.478;2023-01-27T06:40:56;98468.03;;;-1.61;89.79
36284;BME280;56085;48.910;9.478;2023-01-27T06:43:21;98468.28;;;-1.62;89.24
36284;BME280;56085;48.910;9.478;2023-01-27T06:45:50;98481.59;;;-1.61;89.42
36284;BME280;56085;48.910;9.478;2023-01-27T06:48:15;98483.75;;;-1.58;89.16
36284;BME280;56085;48.910;9.478;2023-01-27T06:50:41;98489.44;;;-1.59;89.65
36284;BME280;56085;48.910;9.478;2023-01-27T06:53:06;98504.06;;;-1.55;89.18
36284;BME280;56085;48.910;9.478;2023-01-27T06:55:32;98503.25;;;-1.55;89.29
36284;BME280;56085;48.910;9.478;2023-01-27T06:57:58;98511.91;;;-1.53;88.69
36284;BME280;56085;48.910;9.478;2023-01-27T07:00:23;98515.19;;;-1.51;88.79
36284;BME280;56085;48.910;9.478;2023-01-27T07:02:48;98506.50;;;-1.53;89.15
36284;BME280;56085;48.910;9.478;2023-01-27T07:05:14;98504.34;;;-1.51;88.66
36284;BME280;56085;48.910;9.478;2023-01-27T07:07:39;98505.97;;;-1.55;88.85
36284;BME280;56085;48.910;9.478;2023-01-27T07:10:05;98503.53;;;-1.52;88.38
36284;BME280;56085;48.910;9.478;2023-01-27T07:12:31;98507.03;;;-1.51;88.22
36284;BME280;56085;48.910;9.478;2023-01-27T07:14:56;98512.19;;;-1.50;88.25
36284;BME280;56085;48.910;9.478;2023-01-27T07:17:21;98522.47;;;-1.47;88.52
36284;BME280;56085;48.910;9.478;2023-01-27T07:19:46;98520.59;;;-1.51;88.27
36284;BME280;56085;48.910;9.478;2023-01-27T07:22:11;98529.81;;;-1.47;88.03
36284;BME280;56085;48.910;9.478;2023-01-27T07:24:37;98526.03;;;-1.51;87.78
36284;BME280;56085;48.910;9.478;2023-01-27T07:27:02;98528.47;;;-1.55;87.79
36284;BME280;56085;48.910;9.478;2023-01-27T07:29:27;98535.25;;;-1.52;88.34
36284;BME280;56085;48.910;9.478;2023-01-27T07:31:52;98539.31;;;-1.50;88.31
36284;BME280;56085;48.910;9.478;2023-01-27T07:34:18;98541.75;;;-1.53;88.23
36284;BME280;56085;48.910;9.478;2023-01-27T07:36:43;98543.94;;;-1.50;87.98
36284;BME280;56085;48.910;9.478;2023-01-27T07:39:08;98539.31;;;-1.50;87.42
36284;BME280;56085;48.910;9.478;2023-01-27T07:41:33;98546.09;;;-1.47;87.33
36284;BME280;56085;48.910;9.478;2023-01-27T07:43:58;98537.69;;;-1.51;87.49
36284;BME280;56085;48.910;9.478;2023-01-27T07:46:23;98536.59;;;-1.50;87.41
36284;BME280;56085;48.910;9.478;2023-01-27T07:48:49;98538.78;;;-1.52;87.35
36284;BME280;56085;48.910;9.478;2023-01-27T07:51:14;98545.28;;;-1.53;87.29
36284;BME280;56085;48.910;9.478;2023-01-27T07:53:40;98541.50;;;-1.52;87.76
36284;BME280;56085;48.910;9.478;2023-01-27T07:56:05;98556.94;;;-1.47;87.32
36284;BME280;56085;48.910;9.478;2023-01-27T07:58:35;98551.50;;;-1.47;87.18
36284;BME280;56085;48.910;9.478;2023-01-27T08:01:03;98551.25;;;-1.46;87.83
36284;BME280;56085;48.910;9.478;2023-01-27T08:03:28;98559.63;;;-1.42;87.29
36284;BME280;56085;48.910;9.478;2023-01-27T08:05:55;98561.78;;;-1.39;87.07
36284;BME280;56085;48.910;9.478;2023-01-27T08:08:20;98559.91;;;-1.38;87.55
36284;BME280;56085;48.910;9.478;2023-01-27T08:10:45;98561.25;;;-1.41;87.36
36284;BME280;56085;48.910;9.478;2023-01-27T08:13:13;98563.41;;;-1.38;87.38
36284;BME280;56085;48.910;9.478;2023-01-27T08:15:38;98555.56;;;-1.39;87.65
36284;BME280;56085;48.910;9.478;2023-01-27T08:18:03;98559.63;;;-1.42;86.79
36284;BME280;56085;48.910;9.478;2023-01-27T08:20:29;98557.19;;;-1.38;87.37
36284;BME280;56085;48.910;9.478;2023-01-27T08:22:54;98561.22;;;-1.36;87.53
36284;BME280;56085;48.910;9.478;2023-01-27T08:25:20;98561.22;;;-1.31;86.99
36284;BME280;56085;48.910;9.478;2023-01-27T08:27:47;98573.16;;;-1.27;87.34
36284;BME280;56085;48.910;9.478;2023-01-27T08:30:13;98572.03;;;-1.26;87.31
36284;BME280;56085;48.910;9.478;2023-01-27T08:32:38;98575.59;;;-1.30;86.75
36284;BME280;56085;48.910;9.478;2023-01-27T08:35:03;98571.22;;;-1.26;87.30
36284;BME280;56085;48.910;9.478;2023-01-27T08:37:28;98565.81;;;-1.26;86.64
36284;BME280;56085;48.910;9.478;2023-01-27T08:39:54;98569.88;;;-1.24;87.09
36284;BME280;56085;48.910;9.478;2023-01-27T08:42:19;98582.38;;;-1.23;87.11
36284;BME280;56085;48.910;9.478;2023-01-27T08:44:45;98587.22;;;-1.19;86.59
36284;BME280;56085;48.910;9.478;2023-01-27T08:47:10;98579.91;;;-1.19;87.11
36284;BME280;56085;48.910;9.478;2023-01-27T08:49:36;98579.38;;;-1.21;86.99
36284;BME280;56085;48.910;9.478;2023-01-27T08:52:01;98572.31;;;-1.22;86.50
36284;BME280;56085;48.910;9.478;2023-01-27T08:54:26;98576.66;;;-1.21;87.04
36284;BME280;56085;48.910;9.478;2023-01-27T08:56:51;98570.94;;;-1.19;86.31
36284;BME280;56085;48.910;9.478;2023-01-27T08:59:16;98558.72;;;-1.17;86.24
36284;BME280;56085;48.910;9.478;2023-01-27T09:01:42;98562.78;;;-1.14;86.60
36284;BME280;56085;48.910;9.478;2023-01-27T09:04:07;98567.38;;;-1.10;85.94
36284;BME280;56085;48.910;9.478;2023-01-27T09:06:32;98582.56;;;-1.03;85.92
36284;BME280;56085;48.910;9.478;2023-01-27T09:08:57;98576.84;;;-1.02;86.27
36284;BME280;56085;48.910;9.478;2023-01-27T09:11:44;98574.94;;;-0.96;85.54
36284;BME280;56085;48.910;9.478;2023-01-27T09:14:09;98573.31;;;-0.97;86.18
36284;BME280;56085;48.910;9.478;2023-01-27T09:16:34;98581.13;;;-0.91;85.82
36284;BME280;56085;48.910;9.478;2023-01-27T09:19:00;98577.31;;;-0.90;85.82
36284;BME280;56085;48.910;9.478;2023-01-27T09:21:25;98578.41;;;-0.85;86.03
36284;BME280;56085;48.910;9.478;2023-01-27T09:23:51;98573.75;;;-0.80;86.06
36284;BME280;56085;48.910;9.478;2023-01-27T09:26:16;98582.69;;;-0.74;85.84
36284;BME280;56085;48.910;9.478;2023-01-27T09:28:41;98584.06;;;-0.77;85.32
36284;BME280;56085;48.910;9.478;2023-01-27T09:31:07;98582.94;;;-0.71;85.06
36284;BME280;56085;48.910;9.478;2023-01-27T09:33:35;98585.13;;;-0.73;85.08
36284;BME280;56085;48.910;9.478;2023-01-27T09:36:02;98578.59;;;-0.72;84.91
36284;BME280;56085;48.910;9.478;2023-01-27T09:38:30;98574.81;;;-0.76;85.04
36284;BME280;56085;48.910;9.478;2023-01-27T09:58:56;98583.84;;;-0.41;84.02
36284;BME280;56085;48.910;9.478;2023-01-27T10:06:31;98586.50;;;-0.30;83.60
36284;BME280;56085;48.910;9.478;2023-01-27T10:11:42;98584.28;;;-0.23;82.91
36284;BME280;56085;48.910;9.478;2023-01-27T10:19:37;98588.50;;;-0.07;82.89
36284;BME280;56085;48.910;9.478;2023-01-27T10:27:19;98589.47;;;0.08;82.48
36284;BME280;56085;48.910;9.478;2023-01-27T10:29:46;98600.84;;;0.15;82.05
36284;BME280;56085;48.910;9.478;2023-01-27T10:37:25;98598.78;;;0.02;81.81
36284;BME280;56085;48.910;9.478;2023-01-27T10:40:00;98595.19;;;0.06;81.59
36284;BME280;56085;48.910;9.478;2023-01-27T10:45:02;98599.22;;;0.09;81.31
36284;BME280;56085;48.910;9.478;2023-01-27T10:50:27;98601.50;;;0.02;81.50
36284;BME280;56085;48.910;9.478;2023-01-27T10:52:59;98604.22;;;0.02;81.12
36284;BME280;56085;48.910;9.478;2023-01-27T10:55:28;98602.00;;;0.04;81.33
36284;BME280;56085;48.910;9.478;2023-01-27T10:58:10;98593.88;;;-0.02;81.43
36284;BME280;56085;48.910;9.478;2023-01-27T11:03:12;98596.34;;;0.00;81.14
36284;BME280;56085;48.910;9.478;2023-01-27T11:05:47;98586.56;;;-0.01;81.02
36284;BME280;56085;48.910;9.478;2023-01-27T11:08:15;98580.25;;;0.04;81.14
36284;BME280;56085;48.910;9.478;2023-01-27T11:10:48;98586.47;;;0.09;81.14
36284;BME280;56085;48.910;9.478;2023-01-27T11:13:33;98583.13;;;0.17;80.84
36284;BME280;56085;48.910;9.478;2023-01-27T11:15:59;98587.25;;;0.15;80.91
36284;BME280;56085;48.910;9.478;2023-01-27T11:18:28;98580.88;;;0.25;80.49
36284;BME280;56085;48.910;9.478;2023-01-27T11:21:00;98592.53;;;0.30;80.54
36284;BME280;56085;48.910;9.478;2023-01-27T11:23:28;98577.34;;;0.24;80.50
36284;BME280;56085;48.910;9.478;2023-01-27T11:25:57;98579.78;;;0.26;80.50
36284;BME280;56085;48.910;9.478;2023-01-27T11:31:08;98582.78;;;0.24;80.20
36284;BME280;56085;48.910;9.478;2023-01-27T11:33:41;98583.38;;;0.21;80.33
36284;BME280;56085;48.910;9.478;2023-01-27T11:36:10;98587.75;;;0.17;80.21
36284;BME280;56085;48.910;9.478;2023-01-27T11:38:36;98584.56;;;0.10;80.04
36284;BME280;56085;48.910;9.478;2023-01-27T11:41:01;98588.94;;;0.06;80.32
36284;BME280;56085;48.910;9.478;2023-01-27T11:43:26;98587.94;;;-0.04;80.03
36284;BME280;56085;48.910;9.478;2023-01-27T11:45:54;98579.81;;;-0.09;80.42
36284;BME280;56085;48.910;9.478;2023-01-27T11:48:21;98576.00;;;-0.08;80.44
36284;BME280;56085;48.910;9.478;2023-01-27T11:50:47;98576.25;;;-0.04;80.35
36284;BME280;56085;48.910;9.478;2023-01-27T11:55:39;98573.28;;;-0.08;80.79
36284;BME280;56085;48.910;9.478;2023-01-27T11:58:10;98573.84;;;-0.11;80.91
36284;BME280;56085;48.910;9.478;2023-01-27T12:00:39;98577.09;;;-0.09;80.79
36284;BME280;56085;48.910;9.478;2023-01-27T12:03:10;98560.81;;;-0.09;80.84
36284;BME280;56085;48.910;9.478;2023-01-27T12:05:42;98564.84;;;-0.06;81.13
36284;BME280;56085;48.910;9.478;2023-01-27T12:08:09;98557.50;;;-0.06;80.83
36284;BME280;56085;48.910;9.478;2023-01-27T12:13:23;98563.19;;;-0.02;81.22
36284;BME280;56085;48.910;9.478;2023-01-27T12:15:48;98564.84;;;-0.06;81.52
36284;BME280;56085;48.910;9.478;2023-01-27T12:18:15;98559.66;;;-0.03;81.14
36284;BME280;56085;48.910;9.478;2023-01-27T12:20:41;98568.31;;;-0.01;81.40
36284;BME280;56085;48.910;9.478;2023-01-27T12:23:23;98556.88;;;0.03;81.48
36284;BME280;56085;48.910;9.478;2023-01-27T12:25:55;98550.34;;;0.04;81.35
36284;BME280;56085;48.910;9.478;2023-01-27T12:28:35;98554.16;;;0.03;81.24
36284;BME280;56085;48.910;9.478;2023-01-27T12:31:03;98544.59;;;0.10;81.42
36284;BME280;56085;48.910;9.478;2023-01-27T12:33:30;98544.84;;;0.09;81.52
36284;BME280;56085;48.910;9.478;2023-01-27T12:35:57;98542.38;;;0.12;81.14
36284;BME280;56085;48.910;9.478;2023-01-27T12:38:23;98543.97;;;0.19;81.59
36284;BME280;56085;48.910;9.478;2023-01-27T12:40:53;98549.69;;;0.17;81.35
36284;BME280;56085;48.910;9.478;2023-01-27T12:43:21;98554.03;;;0.18;81.52
36284;BME280;56085;48.910;9.478;2023-01-27T12:46:07;98541.31;;;0.13;81.67
36284;BME280;56085;48.910;9.478;2023-01-27T12:48:43;98544.53;;;0.15;81.21
36284;BME280;56085;48.910;9.478;2023-01-27T12:51:18;98535.31;;;0.11;81.32
36284;BME280;56085;48.910;9.478;2023-01-27T12:53:44;98535.91;;;0.08;81.44
36284;BME280;56085;48.910;9.478;2023-01-27T12:56:10;98535.59;;;0.10;81.64
36284;BME280;56085;48.910;9.478;2023-01-27T12:58:40;98539.41;;;0.09;81.32
36284;BME280;56085;48.910;9.478;2023-01-27T13:03:44;98521.25;;;0.04;81.08
36284;BME280;56085;48.910;9.478;2023-01-27T13:06:13;98530.81;;;0.02;81.54
36284;BME280;56085;48.910;9.478;2023-01-27T13:08:40;98538.13;;;0.01;81.12
36284;BME280;56085;48.910;9.478;2023-01-27T13:11:05;98550.34;;;0.04;81.10
36284;BME280;56085;48.910;9.478;2023-01-27T13:13:30;98543.84;;;0.05;81.43
36284;BME280;56085;48.910;9.478;2023-01-27T13:18:21;98539.47;;;0.04;81.23
36284;BME280;56085;48.910;9.478;2023-01-27T13:20:51;98552.00;;;-0.01;81.22
36284;BME280;56085;48.910;9.478;2023-01-27T13:23:22;98549.28;;;-0.01;81.17
36284;BME280;56085;48.910;9.478;2023-01-27T13:25:52;98541.72;;;-0.04;80.85
36284;BME280;56085;48.910;9.478;2023-01-27T13:28:29;98545.78;;;-0.01;81.38
36284;BME280;56085;48.910;9.478;2023-01-27T13:31:01;98550.38;;;-0.02;80.89
36284;BME280;56085;48.910;9.478;2023-01-27T13:33:33;98554.50;;;-0.04;81.39
36284;BME280;56085;48.910;9.478;2023-01-27T13:36:14;98558.09;;;-0.09;80.99
36284;BME280;56085;48.910;9.478;2023-01-27T13:38:49;98550.44;;;-0.07;81.54
36284;BME280;56085;48.910;9.478;2023-01-27T13:41:34;98556.97;;;-0.08;80.97
36284;BME280;56085;48.910;9.478;2023-01-27T13:44:02;98567.56;;;-0.06;80.72
36284;BME280;56085;48.910;9.478;2023-01-27T13:46:30;98573.00;;;-0.06;81.06
36284;BME280;56085;48.910;9.478;2023-01-27T13:49:31;98568.41;;;-0.11;80.91
36284;BME280;56085;48.910;9.478;2023-01-27T13:51:48;98581.72;;;-0.09;81.00
36284;BME280;56085;48.910;9.478;2023-01-27T13:54:14;98578.19;;;-0.10;81.32
36284;BME280;56085;48.910;9.478;2023-01-27T13:56:42;98578.72;;;-0.08;81.22
36284;BME280;56085;48.910;9.478;2023-01-27T14:12:11;98587.69;;;-0.07;80.99
36284;BME280;56085;48.910;9.478;2023-01-27T14:14:44;98587.72;;;-0.12;80.68
36284;BME280;56085;48.910;9.478;2023-01-27T14:20:00;98596.69;;;-0.12;80.33
36284;BME280;56085;48.910;9.478;2023-01-27T14:22:39;98598.06;;;-0.14;80.79
36284;BME280;56085;48.910;9.478;2023-01-27T14:25:17;98596.72;;;-0.17;80.56
36284;BME280;56085;48.910;9.478;2023-01-27T14:27:45;98592.09;;;-0.16;80.45
36284;BME280;56085;48.910;9.478;2023-01-27T14:30:18;98593.47;;;-0.19;80.77
36284;BME280;56085;48.910;9.478;2023-01-27T14:35:33;98606.53;;;-0.21;80.71